Time;durP1;ratioP1;P1;durP2;ratioP2;P2;SDS_P1;SDS_P2;PMS_P1;PMS_P2;Temp;Humidity;BMP_temperature;BMP_pressure;BME280_temperature;BME280_humidity;BME280_pressure;Samples;Min_cycle;Max_cycle;Signal;HPM_P1;HPM_P2
2022/06/19 00:03:49;;;;;;;4.20;0.90;;;20.30;78.00;;;;;;10500736;28;20629;-59
2022/06/19 00:08:51;;;;;;;5.15;1.05;;;20.30;77.80;;;;;;10507253;28;20039;-61
2022/06/19 00:13:51;;;;;;;7.70;1.42;;;20.20;77.90;;;;;;10500513;28;20834;-60
2022/06/19 00:18:52;;;;;;;5.18;1.02;;;20.20;77.90;;;;;;10503605;28;20038;-59
2022/06/19 00:23:53;;;;;;;6.70;1.33;;;20.20;77.90;;;;;;10502776;28;20526;-62
2022/06/19 00:28:54;;;;;;;8.10;1.20;;;20.20;77.90;;;;;;10503191;28;20070;-59
2022/06/19 00:33:55;;;;;;;3.90;1.05;;;20.20;77.90;;;;;;10504178;28;20123;-59
2022/06/19 00:38:56;;;;;;;5.80;1.90;;;20.10;77.80;;;;;;10503646;28;20076;-60
2022/06/19 00:44:03;;;;;;;4.72;1.30;;;20.10;77.90;;;;;;10503147;28;20024;-60
2022/06/19 00:49:05;;;;;;;5.78;1.02;;;20.10;77.80;;;;;;10501084;28;20044;-59
2022/06/19 00:54:08;;;;;;;4.38;1.02;;;20.10;77.90;;;;;;10502549;28;20029;-59
2022/06/19 00:59:11;;;;;;;3.63;1.13;;;20.10;77.90;;;;;;10506967;28;20105;-59
2022/06/19 01:04:29;;;;;;;3.35;0.90;;;20.10;77.80;;;;;;10504074;28;20127;-58
2022/06/19 01:09:29;;;;;;;5.67;1.40;;;20.00;77.70;;;;;;10503733;28;20024;-58
2022/06/19 01:14:31;;;;;;;2.72;1.35;;;20.00;77.80;;;;;;10500963;28;20051;-58
2022/06/19 01:19:41;;;;;;;5.07;0.90;;;20.00;77.90;;;;;;10505023;28;20110;-61
2022/06/19 01:25:04;;;;;;;4.88;1.00;;;20.00;77.90;;;;;;10497001;28;20023;-58
2022/06/19 01:30:06;;;;;;;5.05;0.98;;;20.00;77.90;;;;;;10504136;28;20035;-58
2022/06/19 01:35:09;;;;;;;4.47;1.08;;;19.90;77.90;;;;;;10503820;28;20508;-61
2022/06/19 01:40:12;;;;;;;3.47;1.13;;;19.90;77.90;;;;;;10510064;28;20068;-58
2022/06/19 01:45:14;;;;;;;3.47;2.15;;;19.90;77.90;;;;;;10513645;28;20095;-59
2022/06/19 01:50:22;;;;;;;4.30;0.95;;;19.90;78.00;;;;;;10509822;28;20020;-58
2022/06/19 01:55:28;;;;;;;3.80;0.70;;;19.90;77.90;;;;;;10505924;28;20047;-59
2022/06/19 02:00:32;;;;;;;3.00;0.90;;;19.80;77.90;;;;;;10507038;28;20036;-58
2022/06/19 02:05:34;;;;;;;6.50;1.20;;;19.80;77.80;;;;;;10506472;28;20028;-58
2022/06/19 02:10:40;;;;;;;2.75;1.00;;;19.80;77.90;;;;;;10511332;28;20059;-59
2022/06/19 02:15:43;;;;;;;3.20;0.50;;;19.80;77.90;;;;;;10509408;28;20067;-58
2022/06/19 02:20:43;;;;;;;3.72;0.88;;;19.80;78.00;;;;;;10504031;28;20460;-58
2022/06/19 02:25:44;;;;;;;4.03;0.90;;;19.70;77.90;;;;;;10508021;28;20115;-60
2022/06/19 02:30:47;;;;;;;3.88;0.90;;;19.80;77.90;;;;;;10510090;28;20166;-58
2022/06/19 02:35:48;;;;;;;2.88;0.70;;;19.70;77.90;;;;;;10509223;28;20028;-61
2022/06/19 02:40:57;;;;;;;2.95;0.75;;;19.70;77.80;;;;;;10514495;28;20405;-60
2022/06/19 02:45:58;;;;;;;2.90;0.93;;;19.70;77.80;;;;;;10511007;28;20085;-61
2022/06/19 02:51:02;;;;;;;3.83;0.80;;;19.60;77.70;;;;;;10504819;28;20020;-60
2022/06/19 02:56:03;;;;;;;3.35;0.60;;;19.60;77.80;;;;;;10509162;28;20024;-59
2022/06/19 03:01:04;;;;;;;4.20;0.70;;;19.60;77.70;;;;;;10502999;28;20020;-58
2022/06/19 03:06:06;;;;;;;9.90;0.90;;;19.60;77.70;;;;;;10503831;28;20044;-59
2022/06/19 03:11:07;;;;;;;4.00;0.70;;;19.60;77.80;;;;;;10507943;28;20464;-59
2022/06/19 03:16:09;;;;;;;3.90;1.00;;;19.50;77.80;;;;;;10506558;28;20555;-59
2022/06/19 03:21:10;;;;;;;1.10;0.60;;;19.50;77.80;;;;;;10502245;28;20428;-58
2022/06/19 03:26:11;;;;;;;4.00;0.95;;;19.50;77.80;;;;;;10503825;28;20032;-58
2022/06/19 03:31:19;;;;;;;5.72;0.80;;;19.50;77.50;;;;;;10502071;28;20059;-59
2022/06/19 03:36:20;;;;;;;4.68;0.80;;;19.50;77.90;;;;;;10509044;28;20032;-58
2022/06/19 03:41:21;;;;;;;3.90;0.90;;;19.40;78.00;;;;;;10504437;28;20068;-59
2022/06/19 03:46:22;;;;;;;4.63;0.82;;;19.40;78.10;;;;;;10507060;28;20043;-58
2022/06/19 03:51:23;;;;;;;3.88;1.50;;;19.40;78.10;;;;;;10509804;28;20032;-58
2022/06/19 03:56:27;;;;;;;4.00;1.10;;;19.40;78.00;;;;;;10506112;28;20117;-58
2022/06/19 04:01:33;;;;;;;3.03;0.90;;;19.40;78.00;;;;;;10504340;28;20036;-59
2022/06/19 04:06:37;;;;;;;5.90;0.98;;;19.40;78.00;;;;;;10488002;28;20016;-58
2022/06/19 04:11:38;;;;;;;4.80;1.45;;;19.30;78.10;;;;;;10480554;28;20050;-58
2022/06/19 04:16:39;;;;;;;3.25;0.85;;;19.30;78.20;;;;;;10495867;28;20400;-58
2022/06/19 04:21:43;;;;;;;4.65;1.20;;;19.30;78.20;;;;;;10407820;28;20040;-58
2022/06/19 04:26:44;;;;;;;4.97;0.98;;;19.30;78.30;;;;;;10410794;28;20964;-58
2022/06/19 04:31:45;;;;;;;3.47;0.70;;;19.30;78.30;;;;;;10407123;28;20031;-58
2022/06/19 04:36:46;;;;;;;2.50;0.70;;;19.30;78.30;;;;;;10411990;28;20979;-58
2022/06/19 04:41:47;;;;;;;2.15;0.75;;;19.30;78.10;;;;;;10416162;28;20032;-58
2022/06/19 04:46:48;;;;;;;2.08;0.70;;;19.30;78.10;;;;;;10412292;28;20417;-58
2022/06/19 04:51:49;;;;;;;3.17;0.80;;;19.30;78.00;;;;;;10414155;28;20028;-58
2022/06/19 04:56:49;;;;;;;2.28;0.55;;;19.30;77.90;;;;;;10409648;28;20032;-58
2022/06/19 05:01:50;;;;;;;4.35;0.75;;;19.20;77.70;;;;;;10408287;28;20034;-58
2022/06/19 05:06:51;;;;;;;5.43;0.73;;;19.30;77.70;;;;;;10406169;28;20131;-58
2022/06/19 05:11:52;;;;;;;3.38;0.90;;;19.20;77.50;;;;;;10407938;28;20645;-58
2022/06/19 05:16:53;;;;;;;3.35;0.88;;;19.20;77.60;;;;;;10410871;28;20202;-57
2022/06/19 05:21:53;;;;;;;1.33;0.68;;;19.20;77.50;;;;;;10412952;28;20906;-58
2022/06/19 05:26:54;;;;;;;2.92;0.75;;;19.20;77.50;;;;;;10408675;28;20044;-58
2022/06/19 05:31:54;;;;;;;4.10;0.85;;;19.20;77.60;;;;;;10406658;28;20154;-61
2022/06/19 05:36:55;;;;;;;4.20;0.70;;;19.20;78.40;;;;;;10411883;28;20551;-59
2022/06/19 05:41:59;;;;;;;3.30;1.20;;;19.20;77.90;;;;;;10412681;28;20936;-58
2022/06/19 05:47:00;;;;;;;2.13;0.60;;;19.20;77.90;;;;;;10408637;28;20969;-58
2022/06/19 05:52:02;;;;;;;1.92;0.57;;;19.20;78.50;;;;;;10407691;28;20032;-58
2022/06/19 05:57:03;;;;;;;3.03;0.80;;;19.20;77.90;;;;;;10407359;28;20048;-58
2022/06/19 06:02:04;;;;;;;3.50;0.80;;;19.20;77.90;;;;;;10403846;28;20457;-59
2022/06/19 06:07:07;;;;;;;1.90;0.65;;;19.20;77.90;;;;;;10411233;28;20032;-59
2022/06/19 06:12:08;;;;;;;4.55;1.00;;;19.20;77.90;;;;;;10401704;28;20054;-58
2022/06/19 06:17:09;;;;;;;3.53;0.70;;;19.20;77.90;;;;;;10410136;28;20036;-58
2022/06/19 06:22:09;;;;;;;3.30;0.68;;;19.20;77.90;;;;;;10404810;28;20040;-58
2022/06/19 06:27:10;;;;;;;2.55;0.80;;;19.10;77.90;;;;;;10412918;28;21136;-58
2022/06/19 06:32:11;;;;;;;3.63;0.70;;;19.10;78.00;;;;;;10410024;28;20040;-59
2022/06/19 06:37:12;;;;;;;4.10;0.60;;;19.10;78.10;;;;;;10415278;28;20085;-58
2022/06/19 06:42:12;;;;;;;1.60;0.60;;;19.10;78.10;;;;;;10411974;28;20112;-58
2022/06/19 06:47:13;;;;;;;2.80;0.65;;;19.10;78.10;;;;;;10408155;28;20073;-59
2022/06/19 06:52:14;;;;;;;2.72;0.52;;;19.10;78.20;;;;;;10410383;28;20361;-58
2022/06/19 06:57:14;;;;;;;4.95;0.70;;;19.10;78.40;;;;;;10410682;28;20462;-58
2022/06/19 07:02:15;;;;;;;1.75;0.65;;;19.00;79.00;;;;;;10415989;28;20979;-58
2022/06/19 07:07:18;;;;;;;2.03;0.50;;;19.30;78.70;;;;;;10413919;28;20155;-58
2022/06/19 07:12:19;;;;;;;3.28;0.75;;;19.00;78.60;;;;;;10412844;28;20043;-58
2022/06/19 07:17:20;;;;;;;2.85;0.70;;;19.00;78.60;;;;;;10415303;28;20041;-58
2022/06/19 07:22:21;;;;;;;2.90;0.80;;;19.00;78.60;;;;;;10411909;28;20851;-60
2022/06/19 07:27:21;;;;;;;4.88;1.00;;;19.00;78.50;;;;;;10413146;28;20361;-58
2022/06/19 07:32:22;;;;;;;3.83;0.80;;;19.00;78.50;;;;;;10417714;28;20156;-58
2022/06/19 07:37:23;;;;;;;6.03;1.10;;;19.00;78.50;;;;;;10413591;28;21029;-58
2022/06/19 07:42:23;;;;;;;4.65;1.08;;;18.90;78.40;;;;;;10414752;28;20429;-58
2022/06/19 07:52:48;;;;;;;4.05;1.00;;;18.90;79.00;;;;;;10409340;28;20039;-60
2022/06/19 07:57:50;;;;;;;6.50;1.50;;;18.90;78.40;;;;;;10417319;28;20036;-59
2022/06/19 08:02:52;;;;;;;6.07;0.93;;;18.90;78.30;;;;;;10413980;28;20031;-59
2022/06/19 08:07:54;;;;;;;3.85;0.98;;;18.90;78.30;;;;;;10424253;28;20051;-61
2022/06/19 08:12:55;;;;;;;2.00;0.82;;;18.90;78.20;;;;;;10424376;28;20129;-59
2022/06/19 08:17:56;;;;;;;5.53;1.38;;;18.90;78.10;;;;;;10418255;28;20063;-58
2022/06/19 08:22:57;;;;;;;3.40;1.00;;;19.00;78.10;;;;;;10419224;28;20032;-60
2022/06/19 08:27:58;;;;;;;5.80;1.00;;;19.00;78.00;;;;;;10416161;28;20112;-59
2022/06/19 08:32:59;;;;;;;4.90;1.13;;;18.90;78.10;;;;;;10414534;28;20461;-60
2022/06/19 08:38:04;;;;;;;7.85;1.60;;;18.90;78.10;;;;;;10421178;28;20109;-60
2022/06/19 08:43:16;;;;;;;3.25;1.10;;;18.90;78.30;;;;;;10408494;28;20578;-61
2022/06/19 08:48:46;;;;;;;4.53;1.20;;;18.90;78.30;;;;;;10411100;28;20020;-59
2022/06/19 08:54:13;;;;;;;4.72;1.25;;;18.90;78.50;;;;;;10402026;28;20058;-60
2022/06/19 08:59:36;;;;;;;6.45;0.88;;;18.90;78.50;;;;;;10421584;28;21104;-59
2022/06/19 09:10:09;;;;;;;4.63;1.05;;;18.90;78.70;;;;;;10411514;28;20224;-58
2022/06/19 09:15:19;;;;;;;3.63;1.00;;;18.90;78.70;;;;;;10415402;28;20402;-59
2022/06/19 09:20:38;;;;;;;3.03;1.40;;;18.90;78.70;;;;;;10410174;28;20113;-58
2022/06/19 09:26:00;;;;;;;4.13;0.82;;;18.90;78.90;;;;;;10405039;28;21075;-59
2022/06/19 09:31:11;;;;;;;6.70;1.90;;;18.90;78.80;;;;;;10410446;28;20029;-60
2022/06/19 09:36:16;;;;;;;3.88;0.85;;;18.90;78.80;;;;;;10406561;28;20061;-59
2022/06/19 09:41:31;;;;;;;6.95;1.10;;;18.90;78.70;;;;;;10408659;28;20043;-60
2022/06/19 09:46:48;;;;;;;2.72;0.77;;;18.90;78.80;;;;;;10407372;28;20114;-60
2022/06/19 09:51:52;;;;;;;5.50;1.37;;;18.80;78.70;;;;;;10415362;28;20034;-61
2022/06/19 09:56:57;;;;;;;4.32;0.85;;;19.00;78.80;;;;;;10415829;28;20918;-60
2022/06/19 10:02:11;;;;;;;5.88;0.98;;;19.00;78.80;;;;;;10418776;28;20113;-60
2022/06/19 10:07:37;;;;;;;5.07;1.95;;;19.00;78.80;;;;;;10417972;28;20043;-60
2022/06/19 10:12:44;;;;;;;4.30;1.27;;;19.00;78.80;;;;;;10416709;28;20596;-61
2022/06/19 10:18:04;;;;;;;3.85;0.85;;;19.10;78.80;;;;;;10421180;28;20046;-59
2022/06/19 10:23:20;;;;;;;4.53;0.93;;;19.10;78.80;;;;;;10415825;28;20911;-59
2022/06/19 10:29:11;;;;;;;5.07;0.82;;;19.20;78.60;;;;;;10421447;28;20089;-59
2022/06/19 10:34:38;;;;;;;3.63;1.17;;;19.20;78.60;;;;;;10381762;28;20104;-58
2022/06/19 10:39:45;;;;;;;3.58;0.75;;;19.30;78.60;;;;;;10416697;28;20068;-60
2022/06/19 10:44:51;;;;;;;3.40;1.00;;;19.30;78.40;;;;;;10412052;28;20145;-58
2022/06/19 10:50:15;;;;;;;2.97;0.93;;;19.30;78.40;;;;;;10413593;28;20028;-58
2022/06/19 10:55:30;;;;;;;2.42;0.82;;;19.40;78.40;;;;;;10416515;28;20027;-58
2022/06/19 11:00:31;;;;;;;5.78;1.05;;;19.40;78.40;;;;;;10419475;28;20147;-59
2022/06/19 11:05:42;;;;;;;3.97;0.90;;;19.40;78.40;;;;;;10408408;28;20602;-58
2022/06/19 11:10:48;;;;;;;2.65;0.90;;;19.30;78.50;;;;;;10411587;28;20889;-58
2022/06/19 11:16:04;;;;;;;2.72;1.00;;;19.30;78.60;;;;;;10410188;28;20222;-58
2022/06/19 11:21:13;;;;;;;2.92;0.70;;;19.30;78.80;;;;;;10417901;28;20279;-62
2022/06/19 11:26:43;;;;;;;2.37;1.00;;;19.20;78.80;;;;;;10423414;28;20483;-62
2022/06/19 11:32:04;;;;;;;3.42;0.98;;;19.20;78.90;;;;;;10426724;28;20032;-61
2022/06/19 11:37:23;;;;;;;4.85;0.80;;;19.30;78.80;;;;;;10424172;28;20048;-59
2022/06/19 11:42:27;;;;;;;2.33;0.98;;;19.30;78.70;;;;;;10418641;28;20028;-59
2022/06/19 11:47:33;;;;;;;2.10;0.90;;;19.30;78.60;;;;;;10420242;28;20031;-59
2022/06/19 11:52:34;;;;;;;5.32;1.13;;;19.30;78.80;;;;;;10420544;28;20040;-58
2022/06/19 11:57:36;;;;;;;4.05;0.80;;;19.30;78.80;;;;;;10414233;28;20841;-59
2022/06/19 12:02:41;;;;;;;2.95;1.20;;;19.30;78.90;;;;;;10428413;28;20258;-60
2022/06/19 12:07:42;;;;;;;3.38;0.80;;;19.30;79.00;;;;;;10423981;28;20701;-59
2022/06/19 12:12:54;;;;;;;3.25;1.17;;;19.20;78.90;;;;;;10419000;28;20044;-62
2022/06/19 12:17:58;;;;;;;2.53;0.77;;;19.30;79.00;;;;;;10411858;28;21100;-59
2022/06/19 12:23:08;;;;;;;3.45;0.98;;;19.40;78.70;;;;;;10413105;28;20035;-59
2022/06/19 12:28:34;;;;;;;3.97;0.77;;;19.60;78.50;;;;;;10408071;28;20323;-58
2022/06/19 12:33:46;;;;;;;2.15;0.60;;;19.60;78.30;;;;;;10401523;28;20433;-58
2022/06/19 12:38:50;;;;;;;1.27;0.55;;;19.70;78.00;;;;;;10409726;28;20048;-59
2022/06/19 12:43:50;;;;;;;2.22;0.60;;;19.80;77.80;;;;;;10412304;28;20836;-58
2022/06/19 12:49:07;;;;;;;3.40;0.80;;;19.80;77.70;;;;;;10410389;28;20148;-58
2022/06/19 12:54:31;;;;;;;3.30;0.60;;;19.90;77.70;;;;;;10409916;28;20028;-58
2022/06/19 12:59:47;;;;;;;1.73;0.65;;;19.80;77.70;;;;;;10397877;28;20041;-58
2022/06/19 13:04:55;;;;;;;1.15;0.52;;;19.80;77.70;;;;;;10415912;28;20024;-58
2022/06/19 13:10:14;;;;;;;1.33;0.63;;;19.80;77.90;;;;;;10409191;28;20513;-59
2022/06/19 13:15:33;;;;;;;0.70;0.50;;;19.70;77.70;;;;;;10418524;28;20032;-60
2022/06/19 13:21:04;;;;;;;2.53;0.70;;;19.80;77.70;;;;;;10405398;28;20559;-59
2022/06/19 13:31:56;;;;;;;1.02;0.60;;;19.90;77.50;;;;;;10404997;28;20095;-59
2022/06/19 13:37:11;;;;;;;3.63;0.52;;;19.90;77.40;;;;;;10411642;28;20032;-59
2022/06/19 13:42:31;;;;;;;1.90;0.65;;;19.90;77.40;;;;;;10412113;28;20042;-58
2022/06/19 13:47:42;;;;;;;1.45;0.47;;;20.00;77.40;;;;;;10408637;28;20475;-59
2022/06/19 13:52:54;;;;;;;1.85;0.70;;;20.00;77.30;;;;;;10404734;28;20023;-59
2022/06/19 13:58:01;;;;;;;2.95;0.65;;;20.00;77.20;;;;;;10407729;28;20441;-59
2022/06/19 14:04:45;;;;;;;2.00;0.60;;;20.00;77.30;;;;;;10409256;28;20225;-59
2022/06/19 14:09:09;;;;;;;2.17;0.60;;;20.00;77.20;;;;;;10405667;28;20039;-60
2022/06/19 14:14:14;;;;;;;1.85;0.47;;;20.10;77.10;;;;;;10407392;28;20113;-58
2022/06/19 14:19:27;;;;;;;1.98;0.40;;;20.10;77.20;;;;;;10415427;28;20041;-58
2022/06/19 14:24:37;;;;;;;3.00;0.77;;;20.00;77.30;;;;;;10411998;28;20445;-58
2022/06/19 14:29:50;;;;;;;1.45;0.50;;;20.10;77.30;;;;;;10408678;28;20032;-59
2022/06/19 14:35:03;;;;;;;2.05;0.40;;;20.10;77.10;;;;;;10410917;28;20105;-60
2022/06/19 14:40:26;;;;;;;0.57;0.35;;;20.10;77.10;;;;;;10411091;28;20040;-58
2022/06/19 14:45:44;;;;;;;2.22;0.60;;;20.10;77.00;;;;;;10407912;28;20285;-59
2022/06/19 14:51:00;;;;;;;1.42;0.55;;;20.10;77.00;;;;;;10424867;28;20854;-59
2022/06/19 14:56:13;;;;;;;1.50;0.50;;;20.10;77.00;;;;;;10420901;28;20028;-59
2022/06/19 15:01:40;;;;;;;2.95;0.60;;;20.10;77.00;;;;;;10415449;28;20050;-59
2022/06/19 15:06:46;;;;;;;2.10;0.70;;;20.00;76.80;;;;;;10418467;28;20052;-59
2022/06/19 15:11:47;;;;;;;2.22;0.80;;;20.00;77.10;;;;;;10416588;28;21155;-60
2022/06/19 15:16:56;;;;;;;1.50;0.60;;;20.00;77.10;;;;;;10417993;28;20053;-58
2022/06/19 15:21:59;;;;;;;;;;;19.90;76.90;;;;;;10412686;28;20036;-59
2022/06/19 15:27:15;;;;;;;1.30;0.70;;;19.90;76.50;;;;;;10412542;28;19923;-59
2022/06/19 15:32:22;;;;;;;1.38;0.80;;;19.80;77.00;;;;;;10415126;28;20980;-59
2022/06/19 15:37:24;;;;;;;4.40;0.55;;;19.80;77.00;;;;;;10413204;28;20032;-59
2022/06/19 15:42:28;;;;;;;3.03;0.65;;;19.70;77.10;;;;;;10418509;28;20039;-59
2022/06/19 15:48:07;;;;;;;4.38;0.80;;;19.70;77.20;;;;;;10412884;28;20027;-58
2022/06/19 15:53:16;;;;;;;3.42;0.68;;;19.70;77.00;;;;;;10412631;28;20292;-57
2022/06/19 15:58:30;;;;;;;3.63;1.15;;;19.70;77.10;;;;;;10413531;28;20033;-58
2022/06/19 16:03:50;;;;;;;2.45;0.60;;;19.70;77.10;;;;;;10418771;28;20855;-58
2022/06/19 16:09:12;;;;;;;2.45;0.93;;;19.80;77.00;;;;;;10410217;28;20049;-58
2022/06/19 16:14:20;;;;;;;3.47;1.17;;;19.80;76.90;;;;;;10418608;28;20139;-58
2022/06/19 16:19:26;;;;;;;2.13;0.80;;;19.50;76.90;;;;;;10412534;28;20897;-59
2022/06/19 16:24:36;;;;;;;2.95;0.73;;;19.70;77.10;;;;;;10427426;28;20115;-57
2022/06/19 16:29:39;;;;;;;1.58;0.77;;;19.70;77.10;;;;;;10425426;28;20242;-60
2022/06/19 16:45:44;;;;;;;3.03;0.70;;;19.80;77.10;;;;;;10410931;28;20130;-57
2022/06/19 16:51:09;;;;;;;2.75;0.77;;;19.80;77.10;;;;;;10413272;28;20432;-58
2022/06/19 16:56:10;;;;;;;3.95;1.40;;;19.80;76.90;;;;;;10394831;28;20044;-57
2022/06/19 17:01:18;;;;;;;2.10;0.82;;;19.80;77.00;;;;;;10408091;28;20116;-57
2022/06/19 17:06:24;;;;;;;2.53;0.80;;;19.80;77.00;;;;;;10402172;28;20122;-57
2022/06/19 17:11:38;;;;;;;4.13;1.17;;;19.80;77.00;;;;;;10404429;28;20036;-57
2022/06/19 17:16:54;;;;;;;1.83;0.80;;;19.80;77.00;;;;;;10415290;28;20048;-57
2022/06/19 17:22:04;;;;;;;3.03;0.80;;;19.80;76.90;;;;;;10414303;28;20040;-59
2022/06/19 17:27:15;;;;;;;2.78;0.70;;;19.80;77.00;;;;;;10413359;28;21022;-58
2022/06/19 17:32:19;;;;;;;4.40;1.33;;;19.90;76.90;;;;;;10408247;28;20036;-61
2022/06/19 17:37:23;;;;;;;1.80;0.70;;;19.80;76.80;;;;;;10414111;28;20044;-57
2022/06/19 17:42:29;;;;;;;5.07;0.80;;;19.80;76.80;;;;;;10410676;28;20032;-59
2022/06/19 17:47:42;;;;;;;2.15;0.80;;;19.80;76.80;;;;;;10406992;28;20017;-58
2022/06/19 17:52:43;;;;;;;3.80;0.73;;;19.80;76.80;;;;;;10402362;28;20052;-59
2022/06/19 17:57:44;;;;;;;2.00;1.10;;;19.70;76.90;;;;;;10412673;28;20333;-58
2022/06/19 18:03:08;;;;;;;2.72;0.80;;;19.70;76.90;;;;;;10409849;28;20429;-58
2022/06/19 18:08:31;;;;;;;4.05;0.90;;;19.70;76.90;;;;;;10409234;28;20873;-59
2022/06/19 18:13:43;;;;;;;4.53;1.00;;;19.70;77.00;;;;;;10410235;28;20067;-58
2022/06/19 18:18:47;;;;;;;5.47;1.17;;;19.70;77.10;;;;;;10408762;28;20029;-58
2022/06/19 18:23:56;;;;;;;3.95;0.90;;;19.70;77.10;;;;;;10417958;28;20023;-58
2022/06/19 18:28:57;;;;;;;4.78;0.90;;;19.60;77.10;;;;;;10422260;28;20169;-60
2022/06/19 18:33:57;;;;;;;4.40;1.00;;;19.60;77.20;;;;;;10420665;28;20043;-59
2022/06/19 18:38:59;;;;;;;6.22;1.00;;;19.50;77.30;;;;;;10414952;28;20843;-57
2022/06/19 18:44:00;;;;;;;4.72;0.90;;;19.60;77.50;;;;;;10421090;28;20028;-56
2022/06/19 18:49:04;;;;;;;4.82;1.15;;;19.50;77.70;;;;;;10420391;28;20043;-57
2022/06/19 18:54:05;;;;;;;3.25;0.77;;;19.50;77.70;;;;;;10409624;28;20059;-57
2022/06/19 18:59:13;;;;;;;4.93;1.05;;;19.50;77.80;;;;;;10414556;28;20733;-57
2022/06/19 19:04:14;;;;;;;4.45;1.00;;;19.50;78.00;;;;;;10411456;28;20691;-56
2022/06/19 19:09:28;;;;;;;3.33;1.00;;;19.40;78.00;;;;;;10414273;28;20055;-59
2022/06/19 19:14:29;;;;;;;2.90;0.88;;;19.40;78.10;;;;;;10417089;28;20229;-59
2022/06/19 19:19:33;;;;;;;4.20;1.10;;;19.40;78.10;;;;;;10414831;28;20082;-59
2022/06/19 19:24:33;;;;;;;3.10;1.45;;;19.30;78.20;;;;;;10416212;28;20027;-59
2022/06/19 19:29:35;;;;;;;4.97;1.33;;;19.30;78.20;;;;;;10430891;28;20420;-59
2022/06/19 19:34:36;;;;;;;2.92;0.80;;;19.30;78.40;;;;;;10419388;28;20854;-60
2022/06/19 19:39:37;;;;;;;4.50;0.77;;;19.30;78.50;;;;;;10414754;28;20036;-59
2022/06/19 19:44:38;;;;;;;4.82;1.10;;;19.20;78.40;;;;;;10420227;28;20031;-58
2022/06/19 19:49:39;;;;;;;3.33;0.68;;;19.20;78.50;;;;;;10417170;28;20035;-59
2022/06/19 19:54:41;;;;;;;3.60;1.13;;;19.20;78.50;;;;;;10414567;28;20131;-58
2022/06/19 19:59:42;;;;;;;3.25;0.90;;;19.10;78.60;;;;;;10417450;28;20033;-58
2022/06/19 20:04:42;;;;;;;8.65;1.40;;;19.10;78.50;;;;;;10413760;28;20050;-58
2022/06/19 20:15:03;;;;;;;4.80;0.90;;;19.10;78.60;;;;;;10421053;28;20052;-59
2022/06/19 20:20:06;;;;;;;3.10;0.90;;;19.10;78.60;;;;;;10503223;28;20048;-59
2022/06/19 20:25:15;;;;;;;3.72;0.85;;;19.10;78.60;;;;;;10498817;28;20016;-58
2022/06/19 20:30:20;;;;;;;3.50;1.10;;;19.00;78.60;;;;;;10501651;28;20028;-60
2022/06/19 20:35:23;;;;;;;5.60;1.70;;;19.00;78.60;;;;;;10498641;28;20433;-58
2022/06/19 20:40:25;;;;;;;4.65;1.45;;;19.00;78.60;;;;;;10496113;28;20531;-58
2022/06/19 20:45:26;;;;;;;3.85;0.90;;;19.00;78.60;;;;;;10509109;28;20052;-60
2022/06/19 20:50:39;;;;;;;2.67;0.70;;;18.90;78.60;;;;;;10504241;28;20615;-60
2022/06/19 20:55:41;;;;;;;1.92;0.70;;;18.90;78.60;;;;;;10505533;28;20105;-59
2022/06/19 21:00:43;;;;;;;1.55;0.60;;;18.90;78.70;;;;;;10505662;28;20051;-58
2022/06/19 21:05:48;;;;;;;3.13;0.80;;;18.90;78.70;;;;;;10507300;28;20492;-59
2022/06/19 21:10:51;;;;;;;3.22;1.00;;;18.90;78.70;;;;;;10512645;28;20045;-59
2022/06/19 21:15:53;;;;;;;4.00;0.85;;;18.80;78.70;;;;;;10507430;28;20038;-57
2022/06/19 21:20:58;;;;;;;1.77;0.68;;;18.80;78.70;;;;;;10505243;28;20536;-59
2022/06/19 21:25:59;;;;;;;2.47;0.60;;;18.80;78.70;;;;;;10509962;28;20502;-57
2022/06/19 21:31:06;;;;;;;2.28;0.75;;;18.80;78.70;;;;;;10511194;28;20522;-59
2022/06/19 21:36:17;;;;;;;3.97;0.63;;;18.80;78.70;;;;;;10504072;28;20722;-57
2022/06/19 21:41:24;;;;;;;2.67;0.70;;;18.80;78.70;;;;;;10506542;28;20024;-58
2022/06/19 21:46:27;;;;;;;2.47;0.70;;;18.70;78.60;;;;;;10499928;28;20024;-59
2022/06/19 21:51:35;;;;;;;1.98;0.80;;;18.70;78.70;;;;;;10506471;28;20488;-59
2022/06/19 21:56:36;;;;;;;2.30;0.70;;;18.70;78.60;;;;;;10508000;28;20027;-60
2022/06/19 22:01:37;;;;;;;4.47;0.70;;;18.70;78.70;;;;;;10513120;28;20397;-59
2022/06/19 22:06:43;;;;;;;2.22;0.57;;;18.70;78.60;;;;;;10510724;28;20040;-59
2022/06/19 22:17:04;;;;;;;2.03;0.60;;;18.60;78.60;;;;;;10513622;28;20052;-60
2022/06/19 22:22:33;;;;;;;1.55;0.63;;;18.60;78.60;;;;;;10508774;28;20032;-58
2022/06/19 22:27:33;;;;;;;;;;;18.60;78.60;;;;;;10513541;28;20525;-58
2022/06/19 22:32:34;;;;;;;1.58;0.50;;;18.60;78.60;;;;;;10515626;28;19908;-58
2022/06/19 22:37:36;;;;;;;2.10;0.70;;;18.60;78.70;;;;;;10522895;28;20043;-57
2022/06/19 22:42:39;;;;;;;1.50;0.70;;;18.60;78.60;;;;;;10506165;28;20028;-58
2022/06/19 22:47:40;;;;;;;1.25;0.88;;;18.50;78.60;;;;;;10509961;28;20059;-58
2022/06/19 22:52:41;;;;;;;3.42;1.20;;;18.50;78.60;;;;;;10505210;28;20085;-57
2022/06/19 22:58:04;;;;;;;0.85;0.45;;;18.50;78.60;;;;;;10513661;28;20106;-58
2022/06/19 23:03:07;;;;;;;2.67;0.70;;;18.50;78.60;;;;;;10517660;28;20023;-57
2022/06/19 23:08:15;;;;;;;0.95;0.40;;;18.50;78.70;;;;;;10510381;28;20028;-60
2022/06/19 23:13:16;;;;;;;3.85;0.60;;;18.50;78.70;;;;;;10508500;28;20739;-60
2022/06/19 23:18:22;;;;;;;2.35;0.98;;;18.50;78.70;;;;;;10504257;28;20080;-59
2022/06/19 23:23:24;;;;;;;1.00;0.50;;;18.40;78.60;;;;;;10503541;28;20524;-59
2022/06/19 23:28:26;;;;;;;1.85;0.80;;;18.40;78.60;;;;;;10513608;28;20477;-58
2022/06/19 23:33:27;;;;;;;2.22;0.68;;;18.40;78.70;;;;;;10509011;28;20029;-59
2022/06/19 23:38:31;;;;;;;2.88;0.75;;;18.40;78.70;;;;;;10512244;28;20097;-59
2022/06/19 23:43:33;;;;;;;3.40;0.60;;;18.40;78.70;;;;;;10507758;28;20054;-59
2022/06/19 23:48:34;;;;;;;2.55;1.02;;;18.40;78.70;;;;;;10507898;27;20024;-58
2022/06/19 23:53:34;;;;;;;1.08;0.55;;;18.40;78.80;;;;;;10509601;28;20044;-58
2022/06/19 23:58:39;;;;;;;4.22;0.77;;;18.40;78.80;;;;;;10509842;28;20039;-57
